Terminal Aerodrome Forecast
Issued by NWS Los Angeles, CA

Home | Current Version | Previous Version | Text Only | Print | Product List | Glossary On
Versions: 1 2 3 4 5 6 7 8 9 10 11 12 13 14 15 16 17 18 19 20 21 22 23 24 25 26
601
FTUS46 KLOX 300546
TAFSMX
TAF
KSMX 300546Z 3006/3106 VRB03KT 5SM BR OVC004
     FM300900 VRB03KT 1/2SM FG VV001
     FM301500 VRB03KT 2SM BR OVC003
     FM301630 31006KT P6SM SKC
     FM302000 31012KT P6SM SKC
     FM310300 VRB03KT P6SM BKN005=

USA.gov is the U.S. government's official web portal to all federal, state and local government web resources and services.